Time;durP1;ratioP1;P1;durP2;ratioP2;P2;SDS_P1;SDS_P2;PMS_P1;PMS_P2;Temp;Humidity;BMP_temperature;BMP_pressure;BME280_temperature;BME280_humidity;BME280_pressure;Samples;Min_cycle;Max_cycle;Signal;HPM_P1;HPM_P2
2021/04/10 00:00:44;;;;;;;20.00;10.35;;;8.40;99.90;;;;;;6649224;89;20255;-77
2021/04/10 00:10:45;;;;;;;19.92;10.80;;;8.60;99.90;;;;;;6662223;89;20221;-77
2021/04/10 00:20:45;;;;;;;21.25;11.43;;;8.50;99.90;;;;;;6697676;88;20201;-77
2021/04/10 00:30:46;;;;;;;22.02;11.75;;;8.50;99.90;;;;;;6693988;88;20688;-77
2021/04/10 00:40:47;;;;;;;21.40;12.27;;;8.40;99.90;;;;;;6648893;89;20240;-77
2021/04/10 00:50:49;;;;;;;20.77;11.93;;;8.30;99.90;;;;;;6653829;88;20778;-77
2021/04/10 01:00:50;;;;;;;18.50;11.15;;;8.30;99.90;;;;;;6714986;88;20329;-76
2021/04/10 01:10:51;;;;;;;20.62;12.10;;;8.30;99.90;;;;;;6655940;88;20205;-76
2021/04/10 01:21:03;;;;;;;21.52;11.48;;;8.40;99.90;;;;;;6680333;88;20207;-77
2021/04/10 01:31:05;;;;;;;22.25;11.50;;;8.30;99.90;;;;;;6736375;88;20196;-77
2021/04/10 01:41:07;;;;;;;21.17;11.52;;;8.30;99.90;;;;;;6653816;88;20192;-76
2021/04/10 01:51:08;;;;;;;23.98;12.52;;;8.30;99.90;;;;;;6727896;88;20644;-76
2021/04/10 02:01:14;;;;;;;23.15;13.23;;;8.10;99.90;;;;;;6739349;88;20209;-77
2021/04/10 02:11:15;;;;;;;25.55;14.57;;;8.10;99.90;;;;;;6736113;88;20195;-75
2021/04/10 02:21:24;;;;;;;24.55;13.93;;;8.10;99.90;;;;;;6738850;88;20744;-76
2021/04/10 02:31:31;;;;;;;27.05;14.85;;;8.00;99.90;;;;;;6640159;88;20170;-78
2021/04/10 02:41:34;;;;;;;24.48;14.13;;;7.90;99.90;;;;;;6633511;89;20704;-75
2021/04/10 02:51:44;;;;;;;23.58;14.98;;;7.90;99.90;;;;;;6635354;89;20201;-76
2021/04/10 03:01:46;;;;;;;25.95;14.98;;;7.90;99.90;;;;;;6658452;88;20754;-76
2021/04/10 03:11:47;;;;;;;27.77;14.40;;;8.00;99.90;;;;;;6709530;88;20213;-77
2021/04/10 03:21:48;;;;;;;23.38;13.77;;;7.90;99.90;;;;;;6666860;88;20199;-76
2021/04/10 03:31:50;;;;;;;25.60;13.38;;;7.90;99.90;;;;;;6691085;88;20279;-76
2021/04/10 03:41:51;;;;;;;24.35;13.85;;;7.80;99.90;;;;;;6688627;88;20191;-76
2021/04/10 03:51:51;;;;;;;21.95;11.68;;;7.90;99.90;;;;;;6670324;88;20186;-76
2021/04/10 04:01:52;;;;;;;20.02;12.25;;;7.90;99.90;;;;;;6692303;88;20202;-77
2021/04/10 04:11:53;;;;;;;20.08;11.50;;;7.80;99.90;;;;;;6653842;88;20807;-77
2021/04/10 04:21:53;;;;;;;20.85;12.30;;;7.80;99.90;;;;;;6691117;88;20299;-76
2021/04/10 04:31:54;;;;;;;18.77;11.23;;;7.80;99.90;;;;;;6726907;88;20661;-76
2021/04/10 04:41:54;;;;;;;18.45;11.07;;;8.00;99.90;;;;;;6691844;88;20193;-75
2021/04/10 04:51:55;;;;;;;18.17;11.10;;;8.00;99.90;;;;;;6722643;88;20185;-76
2021/04/10 05:01:56;;;;;;;23.62;11.93;;;8.00;99.90;;;;;;6732806;88;20193;-77
2021/04/10 05:11:56;;;;;;;24.10;14.32;;;8.00;99.90;;;;;;6666302;88;20332;-77
2021/04/10 05:21:57;;;;;;;22.90;13.93;;;8.00;99.90;;;;;;6650088;89;20744;-77
2021/04/10 05:31:57;;;;;;;26.30;14.32;;;8.00;99.90;;;;;;6661235;88;20204;-76
2021/04/10 05:41:58;;;;;;;23.95;14.25;;;8.10;99.90;;;;;;6696486;88;20225;-75
2021/04/10 05:51:59;;;;;;;25.62;14.82;;;8.10;99.90;;;;;;6648512;89;20215;-76
2021/04/10 06:02:05;;;;;;;27.05;15.93;;;8.20;99.90;;;;;;6648997;89;20239;-75
2021/04/10 06:12:06;;;;;;;31.37;16.62;;;8.20;99.90;;;;;;6647081;89;20193;-75
2021/04/10 06:22:06;;;;;;;31.40;17.30;;;8.30;99.90;;;;;;6685247;88;20649;-75
2021/04/10 06:32:07;;;;;;;31.55;16.77;;;8.40;99.90;;;;;;6735459;88;20314;-76
2021/04/10 06:42:08;;;;;;;31.17;17.40;;;8.50;99.90;;;;;;6738595;88;20705;-76
2021/04/10 06:52:09;;;;;;;29.35;16.52;;;8.70;99.90;;;;;;6734008;88;20298;-75
2021/04/10 07:02:11;;;;;;;27.50;15.60;;;9.00;99.90;;;;;;6738165;88;20204;-77
2021/04/10 07:12:12;;;;;;;28.98;16.17;;;9.00;99.90;;;;;;6692547;88;20193;-78
2021/04/10 07:22:14;;;;;;;27.73;15.65;;;9.00;99.90;;;;;;6710239;88;20198;-77
2021/04/10 07:32:33;;;;;;;26.27;14.65;;;9.30;99.90;;;;;;6653938;89;20188;-76
2021/04/10 07:42:39;;;;;;;24.35;13.75;;;9.50;99.90;;;;;;6696460;88;20198;-76
2021/04/10 07:52:40;;;;;;;24.27;13.10;;;9.80;99.90;;;;;;6703230;88;20189;-76
2021/04/10 08:02:40;;;;;;;21.93;13.73;;;10.10;99.90;;;;;;6690626;88;20234;-76
2021/04/10 08:12:41;;;;;;;24.75;13.68;;;10.10;99.90;;;;;;6684310;88;20499;-75
2021/04/10 08:22:41;;;;;;;18.30;10.82;;;10.50;99.90;;;;;;6657042;88;20619;-74
2021/04/10 08:32:42;;;;;;;15.25;9.77;;;10.60;99.90;;;;;;6733175;88;20196;-75
2021/04/10 08:42:45;;;;;;;19.17;9.95;;;10.70;99.90;;;;;;6685637;88;20197;-75
2021/04/10 08:52:46;;;;;;;15.02;9.52;;;11.00;99.90;;;;;;6646119;89;20227;-75
2021/04/10 09:03:00;;;;;;;11.45;6.80;;;11.00;99.90;;;;;;6647266;89;20703;-76
2021/04/10 09:13:15;;;;;;;10.80;6.75;;;11.30;99.90;;;;;;6677319;88;20187;-76
2021/04/10 09:23:22;;;;;;;12.15;7.28;;;11.20;99.90;;;;;;6673957;88;20185;-75
2021/04/10 09:33:28;;;;;;;13.20;6.60;;;11.50;99.90;;;;;;6684798;88;20184;-75
2021/04/10 09:43:29;;;;;;;9.38;6.07;;;11.10;99.90;;;;;;6664918;88;20639;-74
2021/04/10 09:53:30;;;;;;;10.32;6.05;;;10.80;99.90;;;;;;6687674;88;20203;-73
2021/04/10 10:03:31;;;;;;;12.80;7.03;;;10.70;99.90;;;;;;6687211;88;20263;-73
2021/04/10 10:13:34;;;;;;;13.40;7.75;;;10.60;99.90;;;;;;6713932;88;20204;-74
2021/04/10 10:23:44;;;;;;;14.43;8.60;;;10.70;99.90;;;;;;6679689;88;20775;-75
2021/04/10 10:33:45;;;;;;;15.93;8.63;;;10.90;99.90;;;;;;6698622;88;20279;-75
2021/04/10 10:43:46;;;;;;;16.75;9.63;;;10.80;99.90;;;;;;6687598;88;20186;-75
2021/04/10 10:53:49;;;;;;;20.20;10.50;;;10.70;99.90;;;;;;6669494;88;20180;-76
2021/04/10 11:04:17;;;;;;;20.45;12.30;;;10.60;99.90;;;;;;6678263;76;20188;-75
2021/04/10 11:14:27;;;;;;;24.25;13.52;;;10.30;99.90;;;;;;6678335;88;20180;-76
2021/04/10 11:24:42;;;;;;;23.85;14.55;;;10.20;99.90;;;;;;6662264;88;20230;-76
2021/04/10 11:34:45;;;;;;;24.45;14.02;;;10.10;99.90;;;;;;6662563;88;20257;-76
2021/04/10 11:44:46;;;;;;;27.45;14.68;;;10.10;99.90;;;;;;6663805;89;20603;-75
2021/04/10 11:54:46;;;;;;;26.92;15.38;;;10.10;99.90;;;;;;6664929;89;20260;-76
2021/04/10 12:04:47;;;;;;;24.95;15.38;;;10.30;99.90;;;;;;6663381;88;20202;-76
2021/04/10 12:14:47;;;;;;;23.27;13.70;;;10.50;99.90;;;;;;6663233;88;20213;-76
2021/04/10 12:24:48;;;;;;;20.75;11.90;;;10.50;99.90;;;;;;6662636;89;20214;-76
2021/04/10 12:34:48;;;;;;;21.48;13.25;;;10.50;99.90;;;;;;6662995;88;20330;-76
2021/04/10 12:44:49;;;;;;;22.30;13.30;;;10.50;99.90;;;;;;6663429;88;20207;-76
2021/04/10 12:54:50;;;;;;;21.70;13.40;;;10.40;99.90;;;;;;6662734;88;20206;-76
2021/04/10 13:04:50;;;;;;;17.50;10.20;;;10.50;99.90;;;;;;6662886;88;20192;-75
2021/04/10 13:14:53;;;;;;;14.67;8.87;;;10.50;99.90;;;;;;6662555;88;20299;-76
2021/04/10 13:24:55;;;;;;;13.95;8.48;;;10.40;99.90;;;;;;6661173;88;21467;-75
2021/04/10 13:34:56;;;;;;;13.05;7.35;;;10.50;99.90;;;;;;6662739;88;20650;-74
2021/04/10 13:44:56;;;;;;;12.93;6.82;;;10.40;99.90;;;;;;6665686;89;20191;-75
2021/04/10 13:54:57;;;;;;;10.25;6.72;;;10.60;99.90;;;;;;6669839;88;20175;-74
2021/04/10 14:04:57;;;;;;;9.77;5.90;;;10.80;99.90;;;;;;6664082;89;20195;-73
2021/04/10 14:14:58;;;;;;;11.98;6.90;;;10.60;99.90;;;;;;6688668;87;20205;-74
2021/04/10 14:24:59;;;;;;;7.55;5.60;;;10.90;99.90;;;;;;6667593;88;20233;-74
2021/04/10 14:34:59;;;;;;;6.93;4.97;;;10.80;99.90;;;;;;6660743;89;20274;-73
2021/04/10 14:45:00;;;;;;;7.03;5.07;;;10.90;99.90;;;;;;6687668;88;20306;-71
2021/04/10 14:55:02;;;;;;;6.70;3.60;;;10.90;99.90;;;;;;6661901;89;20192;-72
2021/04/10 15:05:08;;;;;;;5.18;3.15;;;11.10;99.90;;;;;;6661652;89;20205;-73
2021/04/10 15:15:11;;;;;;;3.30;2.00;;;11.20;99.90;;;;;;6670773;88;20226;-74
2021/04/10 15:25:12;;;;;;;4.25;2.45;;;11.20;99.90;;;;;;6666513;89;20213;-74
2021/04/10 15:35:13;;;;;;;5.53;2.97;;;11.00;99.90;;;;;;6662865;88;20175;-74
2021/04/10 15:45:14;;;;;;;5.10;3.20;;;10.90;99.90;;;;;;6664139;89;20187;-74
2021/04/10 15:55:14;;;;;;;5.22;3.30;;;10.80;99.90;;;;;;6662714;88;21069;-75
2021/04/10 16:05:15;;;;;;;6.37;4.10;;;10.80;99.90;;;;;;6665706;89;20218;-76
2021/04/10 16:15:16;;;;;;;6.15;3.70;;;10.80;99.90;;;;;;6674467;88;20590;-77
2021/04/10 16:25:20;;;;;;;8.55;5.10;;;10.70;99.90;;;;;;6669257;89;20180;-77
2021/04/10 16:35:21;;;;;;;10.27;5.12;;;10.60;99.90;;;;;;6666004;89;20561;-77
2021/04/10 16:45:23;;;;;;;7.18;4.70;;;10.50;99.90;;;;;;6665253;89;20653;-76
2021/04/10 16:55:23;;;;;;;8.65;5.45;;;10.50;99.90;;;;;;6664410;89;20630;-76
2021/04/10 17:05:25;;;;;;;7.78;4.87;;;10.50;99.90;;;;;;6669964;76;20224;-78
2021/04/10 17:15:29;;;;;;;7.45;4.90;;;10.60;99.90;;;;;;6677644;88;20190;-79
2021/04/10 17:25:30;;;;;;;6.05;4.43;;;10.60;99.90;;;;;;6650758;89;20333;-78
2021/04/10 17:35:31;;;;;;;7.00;4.10;;;10.60;99.90;;;;;;6654794;89;20643;-78
2021/04/10 17:45:32;;;;;;;7.35;4.70;;;10.50;99.90;;;;;;6650489;89;20760;-76
2021/04/10 17:55:32;;;;;;;6.62;3.97;;;10.40;99.90;;;;;;6656190;88;20243;-74
2021/04/10 18:05:33;;;;;;;7.87;4.28;;;10.40;99.90;;;;;;6650233;89;20855;-75
2021/04/10 18:15:34;;;;;;;7.12;4.05;;;10.30;99.90;;;;;;6656243;89;21064;-73
2021/04/10 18:25:34;;;;;;;7.27;4.23;;;10.30;99.90;;;;;;6644461;89;20267;-76
2021/04/10 18:35:35;;;;;;;8.23;4.68;;;10.20;99.90;;;;;;6655636;89;20537;-76
2021/04/10 18:45:35;;;;;;;5.75;3.47;;;10.20;99.90;;;;;;6646886;89;20208;-75
2021/04/10 18:55:37;;;;;;;7.00;4.70;;;10.10;99.90;;;;;;6651380;89;20193;-78
2021/04/10 19:05:37;;;;;;;9.20;5.00;;;10.10;99.90;;;;;;6659292;89;20187;-76
2021/04/10 19:15:38;;;;;;;6.95;4.00;;;10.00;99.90;;;;;;6666836;89;20225;-76
2021/04/10 19:25:43;;;;;;;9.43;5.18;;;10.00;99.90;;;;;;6642438;88;20659;-77
2021/04/10 19:35:43;;;;;;;11.90;5.07;;;10.00;99.90;;;;;;6650024;89;20237;-75
2021/04/10 19:45:44;;;;;;;8.48;4.55;;;10.00;99.90;;;;;;6648982;88;20224;-76
2021/04/10 19:55:46;;;;;;;9.57;4.82;;;10.00;99.90;;;;;;6650801;88;20210;-76
2021/04/10 20:05:47;;;;;;;7.43;4.55;;;10.10;99.90;;;;;;6648098;88;20188;-74
2021/04/10 20:15:48;;;;;;;7.37;4.83;;;10.10;99.90;;;;;;6652964;88;20188;-76
2021/04/10 20:25:48;;;;;;;6.45;4.22;;;10.20;99.90;;;;;;6648531;89;21183;-75
2021/04/10 20:35:49;;;;;;;5.87;3.55;;;10.20;99.90;;;;;;6647870;89;20656;-73
2021/04/10 20:45:49;;;;;;;6.28;3.95;;;10.40;99.90;;;;;;6648288;89;20274;-74
2021/04/10 20:55:50;;;;;;;7.25;4.22;;;10.40;99.90;;;;;;6649798;89;20176;-75
2021/04/10 21:05:56;;;;;;;6.87;3.92;;;10.30;99.90;;;;;;6647853;89;20185;-75
2021/04/10 21:15:56;;;;;;;7.25;3.90;;;10.40;99.90;;;;;;6648583;89;20208;-75
2021/04/10 21:25:58;;;;;;;4.87;3.15;;;10.40;99.90;;;;;;6652792;89;20632;-74
2021/04/10 21:35:58;;;;;;;8.15;3.67;;;10.30;99.90;;;;;;6650789;89;20704;-73
2021/04/10 21:45:59;;;;;;;6.57;3.78;;;10.30;99.90;;;;;;6656619;88;20321;-73
2021/04/10 21:56:00;;;;;;;5.40;3.00;;;10.20;99.90;;;;;;6649446;89;20324;-74
2021/04/10 22:06:01;;;;;;;7.37;3.15;;;10.30;99.90;;;;;;6648456;89;20215;-74
2021/04/10 22:16:01;;;;;;;5.95;3.67;;;10.30;99.90;;;;;;6651330;88;20207;-74
2021/04/10 22:26:02;;;;;;;9.68;3.37;;;10.40;99.90;;;;;;6652351;89;20205;-74
2021/04/10 22:36:04;;;;;;;5.95;2.92;;;10.40;99.90;;;;;;6651701;89;20597;-74
2021/04/10 22:46:05;;;;;;;5.40;2.70;;;10.40;99.90;;;;;;6651674;89;20695;-74
2021/04/10 22:56:08;;;;;;;5.37;3.20;;;10.40;99.90;;;;;;6651574;89;20172;-75
2021/04/10 23:06:08;;;;;;;4.30;2.55;;;10.40;99.90;;;;;;6650848;89;20646;-74
2021/04/10 23:16:09;;;;;;;5.55;2.60;;;10.50;99.90;;;;;;6650612;89;20290;-75
2021/04/10 23:26:10;;;;;;;4.32;2.50;;;10.60;99.90;;;;;;6651197;89;20715;-74
2021/04/10 23:36:10;;;;;;;5.82;2.70;;;10.70;99.90;;;;;;6656762;89;20200;-75
2021/04/10 23:46:11;;;;;;;6.15;3.10;;;10.60;99.90;;;;;;6647234;89;20207;-74
2021/04/10 23:56:12;;;;;;;5.40;2.83;;;10.40;99.90;;;;;;6658133;89;20300;-76
